Time;durP1;ratioP1;P1;durP2;ratioP2;P2;SDS_P1;SDS_P2;PMS_P1;PMS_P2;Temp;Humidity;BMP_temperature;BMP_pressure;BME280_temperature;BME280_humidity;BME280_pressure;Samples;Min_cycle;Max_cycle;Signal;HPM_P1;HPM_P2
2020/12/04 00:01:29;;;;;;;2.67;1.15;;;5.00;99.90;;;;;;5055911;28;20115;-72
2020/12/04 00:03:55;;;;;;;2.22;1.00;;;5.00;99.90;;;;;;5056239;28;20036;-72
2020/12/04 00:06:20;;;;;;;3.67;1.65;;;5.00;99.90;;;;;;5055866;28;20048;-72
2020/12/04 00:08:46;;;;;;;4.53;1.70;;;5.00;99.90;;;;;;5055816;28;20029;-72
2020/12/04 00:11:11;;;;;;;3.83;1.75;;;5.00;99.90;;;;;;5054425;28;20565;-72
2020/12/04 00:13:39;;;;;;;3.13;1.63;;;5.00;99.90;;;;;;5055937;28;20045;-72
2020/12/04 00:16:05;;;;;;;4.25;2.05;;;7.30;99.90;;;;;;5055642;28;20036;-72
2020/12/04 00:18:31;;;;;;;3.75;2.17;;;4.90;99.90;;;;;;5055240;28;20470;-72
2020/12/04 00:20:56;;;;;;;5.43;2.03;;;4.90;99.90;;;;;;5055890;28;20084;-72
2020/12/04 00:23:22;;;;;;;3.50;1.70;;;4.90;99.90;;;;;;5054141;28;20017;-72
2020/12/04 00:25:47;;;;;;;3.75;1.73;;;4.90;99.90;;;;;;5055715;28;20031;-73
2020/12/04 00:28:13;;;;;;;4.72;2.42;;;4.90;99.90;;;;;;5055386;28;20036;-73
2020/12/04 00:30:38;;;;;;;5.55;2.20;;;4.90;99.90;;;;;;5055341;28;20113;-73
2020/12/04 00:33:04;;;;;;;6.22;2.60;;;4.80;99.90;;;;;;5054210;28;20178;-73
2020/12/04 00:35:29;;;;;;;4.47;2.00;;;4.90;99.90;;;;;;5055330;28;20051;-73
2020/12/04 00:37:55;;;;;;;4.47;2.10;;;4.90;99.90;;;;;;5055231;28;20033;-73
2020/12/04 00:40:21;;;;;;;6.63;3.00;;;4.80;99.90;;;;;;5055292;28;20079;-73
2020/12/04 00:42:47;;;;;;;5.38;2.15;;;4.90;99.90;;;;;;5053166;28;20440;-73
2020/12/04 00:45:15;;;;;;;4.95;2.47;;;4.90;99.90;;;;;;5054900;28;20025;-73
2020/12/04 00:47:42;;;;;;;14.70;3.70;;;4.90;99.90;;;;;;5053992;28;20032;-73
2020/12/04 00:50:07;;;;;;;6.18;2.80;;;4.90;99.90;;;;;;5055376;28;20033;-72
2020/12/04 00:52:33;;;;;;;5.25;2.50;;;4.90;99.90;;;;;;5053706;28;20036;-73
2020/12/04 00:54:58;;;;;;;5.93;2.47;;;4.90;99.90;;;;;;5053470;28;20087;-73
2020/12/04 00:57:24;;;;;;;5.18;2.47;;;4.90;99.90;;;;;;5053512;28;20035;-73
2020/12/04 00:59:50;;;;;;;6.05;2.38;;;4.90;99.90;;;;;;5054671;28;20025;-73
2020/12/04 01:02:16;;;;;;;5.53;2.72;;;4.90;99.90;;;;;;5054569;28;20025;-73
2020/12/04 01:04:41;;;;;;;4.13;1.90;;;4.90;99.90;;;;;;5053368;28;20115;-73
2020/12/04 01:07:07;;;;;;;6.65;2.92;;;4.90;99.90;;;;;;5054572;28;20115;-73
2020/12/04 01:09:34;;;;;;;5.35;2.50;;;4.90;99.90;;;;;;5053361;28;20112;-73
2020/12/04 01:11:59;;;;;;;4.97;2.70;;;4.90;99.90;;;;;;5053275;28;20140;-73
2020/12/04 01:14:27;;;;;;;5.20;1.95;;;4.90;99.90;;;;;;5053477;28;20067;-73
2020/12/04 01:16:52;;;;;;;5.90;2.22;;;4.80;99.90;;;;;;5054348;28;20056;-73
2020/12/04 01:19:18;;;;;;;6.38;1.98;;;4.90;99.90;;;;;;5054739;28;20056;-73
2020/12/04 01:21:49;;;;;;;7.05;2.95;;;4.90;99.90;;;;;;5054489;28;20017;-73
2020/12/04 01:24:15;;;;;;;6.75;2.20;;;4.90;99.90;;;;;;5054430;28;20028;-73
2020/12/04 01:26:41;;;;;;;3.78;1.73;;;4.90;99.90;;;;;;5054209;28;20477;-73
2020/12/04 01:29:07;;;;;;;6.00;2.17;;;4.90;99.90;;;;;;5054294;28;20485;-73
2020/12/04 01:31:32;;;;;;;4.22;2.20;;;4.90;99.90;;;;;;5054088;28;20029;-73
2020/12/04 01:34:01;;;;;;;4.15;1.55;;;4.90;99.90;;;;;;5054091;28;20025;-73
2020/12/04 01:36:27;;;;;;;4.40;2.03;;;4.90;99.90;;;;;;5052612;28;20052;-73
2020/12/04 01:38:53;;;;;;;5.50;1.95;;;4.90;99.90;;;;;;5053784;28;20021;-73
2020/12/04 01:41:19;;;;;;;4.68;1.95;;;4.90;99.90;;;;;;5054480;28;20080;-73
2020/12/04 01:43:44;;;;;;;4.40;1.73;;;4.90;99.90;;;;;;5054031;28;20029;-73
2020/12/04 01:46:10;;;;;;;5.00;2.03;;;4.90;99.90;;;;;;5052586;28;20129;-72
2020/12/04 01:48:36;;;;;;;6.63;2.85;;;4.80;99.90;;;;;;5053651;28;20029;-73
2020/12/04 01:51:02;;;;;;;4.65;1.60;;;4.80;99.90;;;;;;5054287;28;20478;-72
2020/12/04 01:53:28;;;;;;;4.50;1.95;;;4.80;99.90;;;;;;5053854;28;20017;-72
2020/12/04 01:55:54;;;;;;;4.68;1.92;;;4.80;99.90;;;;;;5053877;28;20024;-72
2020/12/04 01:58:20;;;;;;;4.93;2.00;;;4.80;99.90;;;;;;5052402;28;20032;-72
2020/12/04 02:00:46;;;;;;;7.10;2.75;;;4.80;99.90;;;;;;5053768;28;20033;-72
2020/12/04 02:03:13;;;;;;;8.10;2.63;;;4.80;99.90;;;;;;5052410;28;20016;-73
2020/12/04 02:05:47;;;;;;;5.50;1.85;;;4.80;99.90;;;;;;5052496;28;20021;-73
2020/12/04 02:08:43;;;;;;;3.15;1.88;;;4.80;99.90;;;;;;5053775;28;20025;-72
2020/12/04 02:11:17;;;;;;;7.65;2.22;;;4.80;99.90;;;;;;5051677;28;20041;-72
2020/12/04 02:13:47;;;;;;;4.55;1.88;;;4.80;99.90;;;;;;5054218;28;20035;-72
2020/12/04 02:16:16;;;;;;;5.18;1.92;;;4.80;99.90;;;;;;5053673;28;20112;-72
2020/12/04 02:18:42;;;;;;;;;;;4.80;99.90;;;;;;5054075;28;20104;-71
2020/12/04 02:21:07;;;;;;;6.47;2.35;;;4.80;99.90;;;;;;5052470;28;20099;-72
2020/12/04 02:23:35;;;;;;;5.57;2.05;;;4.70;99.90;;;;;;5053808;28;20029;-71
2020/12/04 02:26:01;;;;;;;5.10;2.00;;;4.70;99.90;;;;;;5053603;28;20028;-71
2020/12/04 02:28:37;;;;;;;5.07;1.83;;;4.70;99.90;;;;;;5053761;28;20029;-71
2020/12/04 02:31:04;;;;;;;5.45;2.15;;;4.70;99.90;;;;;;5053716;28;20482;-71
2020/12/04 02:33:30;;;;;;;3.90;1.83;;;4.70;99.90;;;;;;5052428;28;20032;-71
2020/12/04 02:35:56;;;;;;;3.72;1.70;;;4.70;99.90;;;;;;5052513;28;20474;-71
2020/12/04 02:38:24;;;;;;;5.78;2.30;;;4.70;99.90;;;;;;5053685;28;20033;-72
2020/12/04 02:40:50;;;;;;;4.70;1.50;;;4.70;99.90;;;;;;5053681;28;20101;-72
2020/12/04 02:43:17;;;;;;;4.85;2.13;;;4.70;99.90;;;;;;5053342;28;20255;-71
2020/12/04 02:45:42;;;;;;;5.30;1.95;;;4.70;99.90;;;;;;5052159;28;20108;-71
2020/12/04 02:48:08;;;;;;;3.30;1.88;;;4.70;99.90;;;;;;5053922;28;20122;-71
2020/12/04 02:50:34;;;;;;;4.40;1.88;;;4.70;99.90;;;;;;5053562;28;20059;-72
2020/12/04 02:53:00;;;;;;;4.57;1.65;;;4.70;99.90;;;;;;5052337;28;20386;-72
2020/12/04 02:55:25;;;;;;;5.25;1.70;;;4.70;99.90;;;;;;5052123;28;20033;-71
2020/12/04 02:57:51;;;;;;;4.15;1.52;;;4.80;99.90;;;;;;5053376;28;20029;-71
2020/12/04 03:00:16;;;;;;;4.25;1.55;;;4.80;99.90;;;;;;5051932;28;20032;-71
2020/12/04 03:02:42;;;;;;;6.93;1.80;;;4.80;99.90;;;;;;5053337;28;20531;-71
2020/12/04 03:05:07;;;;;;;3.83;1.40;;;4.80;99.90;;;;;;5053645;28;20025;-72
2020/12/04 03:07:33;;;;;;;3.10;1.30;;;4.80;99.90;;;;;;5057702;28;20033;-72
2020/12/04 03:09:58;;;;;;;2.75;1.38;;;4.90;99.90;;;;;;5057217;28;20389;-71
2020/12/04 03:12:24;;;;;;;3.22;1.20;;;4.90;99.90;;;;;;5055594;28;20033;-71
2020/12/04 03:14:50;;;;;;;3.53;1.45;;;4.80;99.90;;;;;;5056530;28;20021;-71
2020/12/04 03:17:15;;;;;;;3.00;1.17;;;4.90;99.90;;;;;;5056302;28;20021;-71
2020/12/04 03:19:41;;;;;;;2.67;0.93;;;4.90;99.90;;;;;;5056499;28;20032;-72
2020/12/04 03:22:06;;;;;;;2.03;1.00;;;4.80;99.90;;;;;;5056721;28;20113;-72
2020/12/04 03:24:33;;;;;;;3.95;1.77;;;4.80;99.90;;;;;;5056207;28;20053;-73
2020/12/04 03:26:59;;;;;;;2.75;1.08;;;4.90;99.90;;;;;;5057069;28;20018;-73
2020/12/04 03:29:25;;;;;;;2.95;0.90;;;4.90;99.90;;;;;;5056887;28;20040;-73
2020/12/04 03:31:50;;;;;;;3.50;1.52;;;4.90;99.90;;;;;;5056468;28;20025;-73
2020/12/04 03:34:16;;;;;;;3.42;1.13;;;4.90;99.90;;;;;;5056444;28;20040;-73
2020/12/04 03:36:41;;;;;;;4.68;1.33;;;4.90;99.90;;;;;;5056793;28;20025;-73
2020/12/04 03:39:07;;;;;;;3.22;1.33;;;4.90;99.90;;;;;;5056221;28;20021;-73
2020/12/04 03:41:32;;;;;;;2.30;1.20;;;5.00;99.90;;;;;;5056363;28;20052;-72
2020/12/04 03:43:58;;;;;;;2.25;0.73;;;5.00;99.90;;;;;;5056172;28;20064;-73
2020/12/04 03:46:23;;;;;;;2.85;0.75;;;5.00;99.90;;;;;;5056193;28;20048;-72
2020/12/04 03:48:49;;;;;;;5.47;1.23;;;4.90;99.90;;;;;;5056007;28;20028;-72
2020/12/04 03:51:14;;;;;;;3.05;1.30;;;5.00;99.90;;;;;;5056329;28;20031;-72
2020/12/04 03:53:40;;;;;;;3.03;1.10;;;5.00;99.90;;;;;;5056219;28;20048;-73
2020/12/04 03:56:05;;;;;;;3.28;0.93;;;5.00;99.90;;;;;;5054642;28;20478;-74
2020/12/04 03:58:31;;;;;;;3.58;1.10;;;4.90;99.90;;;;;;5055962;28;20028;-72
2020/12/04 04:00:56;;;;;;;1.90;0.70;;;5.00;99.90;;;;;;5055970;28;20096;-72
2020/12/04 04:03:22;;;;;;;2.35;0.73;;;5.00;99.90;;;;;;5056163;28;20021;-73
2020/12/04 04:05:48;;;;;;;4.05;1.40;;;5.00;99.90;;;;;;5055847;28;20029;-73
2020/12/04 04:08:14;;;;;;;2.08;0.80;;;5.00;99.90;;;;;;5055377;28;20017;-73
2020/12/04 04:10:39;;;;;;;3.97;1.73;;;5.00;99.90;;;;;;5055686;28;20108;-73
2020/12/04 04:13:05;;;;;;;2.42;0.77;;;5.10;99.90;;;;;;5056054;28;20084;-73
2020/12/04 04:15:30;;;;;;;2.20;0.63;;;5.00;99.90;;;;;;5055040;28;20039;-73
2020/12/04 04:17:59;;;;;;;2.08;0.70;;;5.00;99.90;;;;;;5055005;28;20021;-72
2020/12/04 04:20:26;;;;;;;1.53;0.50;;;5.00;99.90;;;;;;5055643;28;20422;-72
2020/12/04 04:22:51;;;;;;;0.93;0.30;;;5.10;99.90;;;;;;5055336;28;20028;-72
2020/12/04 04:25:19;;;;;;;1.60;0.60;;;5.10;99.90;;;;;;5055415;28;20021;-72
2020/12/04 04:27:45;;;;;;;1.75;0.52;;;5.10;99.90;;;;;;5053896;28;20028;-72
2020/12/04 04:30:11;;;;;;;1.63;0.38;;;5.10;99.90;;;;;;5055151;28;20029;-72
2020/12/04 04:32:37;;;;;;;2.03;0.40;;;5.10;99.90;;;;;;5055218;28;20032;-72
2020/12/04 04:35:03;;;;;;;5.75;0.95;;;5.10;99.90;;;;;;5054012;28;20021;-72
2020/12/04 04:37:29;;;;;;;1.90;0.28;;;5.10;99.90;;;;;;5055155;28;20025;-72
2020/12/04 04:39:54;;;;;;;1.45;0.40;;;5.10;99.90;;;;;;5055021;28;20033;-72
2020/12/04 04:42:20;;;;;;;1.35;0.43;;;5.20;99.90;;;;;;5055042;28;20013;-72
2020/12/04 04:44:45;;;;;;;3.15;0.38;;;5.20;99.90;;;;;;5055712;28;20098;-72
2020/12/04 04:47:22;;;;;;;2.05;0.28;;;5.20;99.90;;;;;;5055089;28;20093;-73
2020/12/04 04:49:50;;;;;;;1.02;0.22;;;5.20;99.90;;;;;;5054365;28;20394;-73
2020/12/04 04:52:16;;;;;;;1.70;0.10;;;5.20;99.90;;;;;;5054787;28;20533;-73
2020/12/04 04:54:44;;;;;;;0.52;0.20;;;5.20;99.90;;;;;;5054813;28;20086;-72
2020/12/04 04:57:11;;;;;;;0.95;0.20;;;5.30;99.90;;;;;;5053479;28;20017;-72
2020/12/04 04:59:37;;;;;;;1.45;0.30;;;5.30;99.90;;;;;;5053447;28;20028;-72
2020/12/04 05:02:02;;;;;;;0.60;0.13;;;5.30;99.90;;;;;;5053126;28;20025;-72
2020/12/04 05:04:48;;;;;;;1.67;0.10;;;5.30;99.90;;;;;;5053285;28;20013;-72
2020/12/04 05:07:15;;;;;;;0.95;0.03;;;5.30;99.90;;;;;;5053201;28;20498;-72
2020/12/04 05:09:41;;;;;;;0.63;0.10;;;5.30;99.90;;;;;;5055140;28;20450;-72
2020/12/04 05:12:07;;;;;;;0.63;0.10;;;5.30;99.90;;;;;;5052914;28;20039;-72
2020/12/04 05:14:32;;;;;;;0.30;0.08;;;5.30;99.90;;;;;;5054365;28;20023;-72
2020/12/04 05:16:58;;;;;;;0.50;0.08;;;5.40;99.90;;;;;;5054722;28;20039;-73
2020/12/04 05:19:36;;;;;;;1.02;0.17;;;5.40;99.90;;;;;;5054620;28;20025;-72
2020/12/04 05:22:22;;;;;;;1.50;0.20;;;5.40;99.90;;;;;;5054037;28;20032;-73
2020/12/04 05:24:47;;;;;;;0.75;0.00;;;5.40;99.90;;;;;;5052712;28;20459;-72
2020/12/04 05:27:27;;;;;;;0.63;0.00;;;5.30;99.90;;;;;;5054098;28;20096;-72
2020/12/04 05:29:54;;;;;;;0.63;0.05;;;5.30;99.90;;;;;;5054241;28;20107;-74
2020/12/04 05:32:20;;;;;;;1.08;0.20;;;5.30;99.90;;;;;;5054574;28;20504;-74
2020/12/04 05:34:45;;;;;;;0.22;0.17;;;5.30;99.90;;;;;;5054262;28;20108;-74
2020/12/04 05:37:11;;;;;;;0.10;0.00;;;5.30;99.90;;;;;;5053112;28;20031;-74
2020/12/04 05:39:42;;;;;;;0.32;0.05;;;5.30;99.90;;;;;;5052800;28;20016;-74
2020/12/04 05:42:08;;;;;;;2.90;0.00;;;5.30;99.90;;;;;;5052887;28;20052;-74
2020/12/04 05:44:33;;;;;;;0.40;0.08;;;5.40;99.90;;;;;;5054163;28;20017;-74
2020/12/04 05:46:59;;;;;;;0.47;0.00;;;5.40;99.90;;;;;;5054109;28;20028;-74
2020/12/04 05:49:24;;;;;;;0.95;0.00;;;5.40;99.90;;;;;;5054190;28;20033;-74
2020/12/04 05:51:53;;;;;;;0.45;0.00;;;5.50;99.90;;;;;;5054175;28;20047;-74
2020/12/04 05:54:19;;;;;;;0.28;0.13;;;5.50;99.90;;;;;;5053536;28;20024;-74
2020/12/04 05:56:51;;;;;;;0.32;0.00;;;5.50;99.90;;;;;;5052386;28;20120;-74
2020/12/04 05:59:21;;;;;;;0.40;0.00;;;5.60;99.90;;;;;;5052641;28;20433;-74
2020/12/04 06:01:47;;;;;;;0.55;0.03;;;5.60;99.90;;;;;;5052767;28;20021;-74
2020/12/04 06:04:19;;;;;;;0.98;0.10;;;5.70;99.90;;;;;;5054039;28;20500;-74
2020/12/04 06:06:50;;;;;;;0.28;0.10;;;5.70;99.90;;;;;;5053991;28;20060;-74
2020/12/04 06:09:17;;;;;;;0.35;0.00;;;5.70;99.90;;;;;;5053892;28;20021;-74
2020/12/04 06:11:45;;;;;;;0.35;0.00;;;5.70;99.90;;;;;;5053675;28;20536;-74
2020/12/04 06:14:19;;;;;;;0.35;0.00;;;5.70;99.90;;;;;;5052461;28;20108;-74
2020/12/04 06:17:05;;;;;;;0.82;0.08;;;5.70;99.90;;;;;;5053955;28;20028;-74
2020/12/04 06:19:32;;;;;;;0.45;0.10;;;5.70;99.90;;;;;;5046495;28;20103;-74
2020/12/04 06:22:15;;;;;;;0.40;0.10;;;5.80;99.90;;;;;;5052317;28;20051;-74
2020/12/04 06:24:55;;;;;;;0.82;0.00;;;5.80;99.90;;;;;;5052229;28;20029;-74
2020/12/04 06:27:40;;;;;;;0.10;0.00;;;5.80;99.90;;;;;;5052126;28;20025;-72
2020/12/04 06:30:08;;;;;;;1.15;0.00;;;5.80;99.90;;;;;;5053834;28;20036;-72
2020/12/04 06:32:35;;;;;;;0.10;0.10;;;5.90;99.90;;;;;;5053688;28;20017;-72
2020/12/04 06:35:03;;;;;;;0.85;0.00;;;5.90;99.90;;;;;;5052293;28;20482;-72
2020/12/04 06:37:43;;;;;;;0.30;0.00;;;5.90;99.90;;;;;;5053535;28;20090;-73
2020/12/04 06:40:28;;;;;;;1.38;0.00;;;6.00;99.90;;;;;;5054713;28;20028;-73
2020/12/04 06:42:55;;;;;;;0.22;0.00;;;6.00;99.90;;;;;;5056615;28;20017;-73
2020/12/04 06:45:21;;;;;;;0.22;0.00;;;6.10;99.90;;;;;;5057841;28;20029;-73
2020/12/04 06:48:13;;;;;;;0.77;0.00;;;6.00;99.90;;;;;;5057486;28;20105;-72
2020/12/04 06:50:46;;;;;;;0.47;0.00;;;6.10;99.90;;;;;;5057402;28;20032;-72
2020/12/04 06:53:13;;;;;;;1.20;0.00;;;6.10;99.90;;;;;;5057806;28;20044;-72
2020/12/04 06:55:40;;;;;;;1.35;0.00;;;6.10;99.90;;;;;;5057255;28;20033;-72
2020/12/04 06:58:07;;;;;;;0.75;0.00;;;6.10;99.90;;;;;;5057482;28;20028;-73
2020/12/04 07:00:33;;;;;;;0.20;0.10;;;6.20;99.90;;;;;;5055951;28;20397;-72
2020/12/04 07:03:00;;;;;;;0.38;0.00;;;6.10;99.90;;;;;;5057252;28;20014;-73
2020/12/04 07:05:26;;;;;;;1.00;0.28;;;6.20;99.90;;;;;;5057126;28;20394;-73
2020/12/04 07:08:09;;;;;;;0.20;0.08;;;6.20;99.90;;;;;;5055479;28;20029;-74
2020/12/04 07:10:36;;;;;;;0.00;0.00;;;6.10;99.90;;;;;;5057639;28;20033;-74
2020/12/04 07:13:04;;;;;;;0.82;0.00;;;6.00;99.90;;;;;;5057555;28;20021;-73
2020/12/04 07:15:31;;;;;;;0.22;0.00;;;6.00;99.90;;;;;;5055679;28;20025;-72
2020/12/04 07:17:57;;;;;;;0.88;0.10;;;6.00;99.90;;;;;;5055662;28;20025;-72
2020/12/04 07:20:33;;;;;;;1.73;0.00;;;6.00;99.90;;;;;;5055655;28;20378;-72
2020/12/04 07:22:59;;;;;;;0.52;0.00;;;5.90;99.90;;;;;;5056895;28;20071;-73
2020/12/04 07:25:25;;;;;;;0.50;0.28;;;6.00;99.90;;;;;;5057273;28;20100;-72
2020/12/04 07:27:52;;;;;;;0.52;0.10;;;6.00;99.90;;;;;;5057094;28;20021;-73
2020/12/04 07:30:18;;;;;;;0.22;0.03;;;6.00;99.90;;;;;;5057282;28;20033;-73
2020/12/04 07:32:56;;;;;;;0.25;0.00;;;6.00;99.90;;;;;;5055597;28;20033;-73
2020/12/04 07:35:23;;;;;;;1.20;0.00;;;6.00;99.90;;;;;;5057070;28;20025;-73
2020/12/04 07:37:49;;;;;;;0.90;0.00;;;6.10;99.90;;;;;;5055124;28;20033;-73
2020/12/04 07:40:16;;;;;;;1.08;0.17;;;6.10;99.90;;;;;;5056772;28;20590;-73
2020/12/04 07:42:42;;;;;;;0.10;0.00;;;6.10;99.90;;;;;;5056527;28;20432;-73
2020/12/04 07:45:14;;;;;;;0.30;0.00;;;6.10;99.90;;;;;;5055145;28;20022;-73
2020/12/04 07:47:42;;;;;;;1.27;0.10;;;6.20;99.90;;;;;;5056090;28;20029;-73
2020/12/04 07:50:10;;;;;;;0.55;0.00;;;6.10;99.90;;;;;;5055834;28;20029;-73
2020/12/04 07:52:36;;;;;;;0.17;0.00;;;6.10;99.90;;;;;;5054881;28;20021;-73
2020/12/04 07:55:05;;;;;;;0.50;0.03;;;6.20;99.90;;;;;;5055141;28;20683;-74
2020/12/04 07:57:43;;;;;;;0.50;0.05;;;6.20;99.90;;;;;;5056184;28;20032;-73
2020/12/04 08:00:09;;;;;;;0.10;0.00;;;6.20;99.90;;;;;;5056455;28;20360;-73
2020/12/04 08:02:34;;;;;;;0.57;0.00;;;6.30;99.90;;;;;;5055641;28;20301;-74
2020/12/04 08:05:00;;;;;;;1.38;0.00;;;6.30;99.90;;;;;;5055743;28;20092;-73
2020/12/04 08:07:33;;;;;;;0.00;0.00;;;6.30;99.90;;;;;;5056023;28;20390;-73
2020/12/04 08:09:59;;;;;;;2.00;0.00;;;6.60;99.90;;;;;;5056539;28;20020;-73
2020/12/04 08:12:32;;;;;;;0.38;0.00;;;6.40;99.90;;;;;;5055812;28;20508;-73
2020/12/04 08:14:59;;;;;;;0.98;0.00;;;6.50;99.90;;;;;;5055457;28;20082;-73
2020/12/04 08:17:30;;;;;;;0.10;0.00;;;6.60;99.90;;;;;;5055390;28;20481;-73
2020/12/04 08:19:59;;;;;;;0.25;0.00;;;6.70;99.90;;;;;;5055807;28;20094;-73
2020/12/04 08:22:28;;;;;;;0.00;0.00;;;6.80;99.90;;;;;;5054224;28;20470;-73
2020/12/04 08:25:04;;;;;;;;;;;6.90;99.90;;;;;;5055898;28;20025;-72
2020/12/04 08:27:44;;;;;;;0.00;0.00;;;6.90;99.90;;;;;;5054059;28;19916;-74
2020/12/04 08:30:18;;;;;;;1.35;0.00;;;7.00;99.90;;;;;;5055501;28;20079;-74
2020/12/04 08:32:45;;;;;;;0.35;0.00;;;7.00;99.90;;;;;;5054941;28;20025;-74
2020/12/04 08:35:17;;;;;;;0.30;0.00;;;7.10;99.90;;;;;;5055791;28;20108;-74
2020/12/04 08:37:43;;;;;;;0.10;0.00;;;7.00;99.90;;;;;;5054101;28;20033;-73
2020/12/04 08:40:31;;;;;;;0.00;0.00;;;7.10;99.90;;;;;;5055713;28;20036;-74
2020/12/04 08:43:15;;;;;;;0.00;0.00;;;7.00;99.90;;;;;;5055476;28;20024;-74
2020/12/04 08:45:45;;;;;;;1.17;0.00;;;7.10;99.90;;;;;;5053965;28;20035;-73
2020/12/04 08:48:12;;;;;;;0.00;0.00;;;7.00;99.90;;;;;;5055475;28;20035;-73
2020/12/04 08:50:43;;;;;;;1.65;0.00;;;7.00;99.90;;;;;;5055433;28;20033;-71
2020/12/04 08:53:10;;;;;;;1.17;0.00;;;7.00;99.90;;;;;;5055229;28;20436;-73
2020/12/04 08:55:36;;;;;;;1.00;0.00;;;7.00;99.90;;;;;;5055145;28;20013;-73
2020/12/04 08:58:02;;;;;;;0.65;0.00;;;7.00;99.90;;;;;;5055091;28;20025;-73
2020/12/04 09:00:32;;;;;;;0.00;0.00;;;6.90;99.90;;;;;;5055242;28;20024;-72
2020/12/04 09:03:01;;;;;;;0.10;0.00;;;6.90;99.90;;;;;;5055173;28;20104;-72
2020/12/04 09:05:27;;;;;;;0.47;0.00;;;6.90;99.90;;;;;;5117747;22;20013;-71
2020/12/04 09:07:55;;;;;;;0.00;0.00;;;6.90;99.90;;;;;;5033714;28;20040;-72
2020/12/04 09:10:21;;;;;;;0.00;0.00;;;6.90;99.90;;;;;;5050444;28;20025;-72
2020/12/04 09:12:48;;;;;;;1.75;0.00;;;6.90;99.90;;;;;;5035114;28;20074;-73
2020/12/04 09:15:18;;;;;;;1.27;0.00;;;6.90;99.90;;;;;;5034944;28;20533;-73
2020/12/04 09:17:45;;;;;;;0.03;0.00;;;6.90;99.90;;;;;;5052774;28;20118;-73
2020/12/04 09:20:12;;;;;;;0.10;0.00;;;7.00;99.90;;;;;;5055314;28;20065;-74
2020/12/04 09:22:38;;;;;;;0.32;0.00;;;7.10;99.90;;;;;;5054654;28;20412;-74
2020/12/04 09:25:06;;;;;;;2.10;0.00;;;7.10;99.90;;;;;;5054950;28;20040;-74
2020/12/04 09:27:32;;;;;;;0.23;0.00;;;7.10;99.90;;;;;;5054770;28;20025;-73
2020/12/04 09:29:58;;;;;;;0.52;0.00;;;7.20;99.90;;;;;;5070361;28;20531;-73
2020/12/04 09:32:23;;;;;;;0.95;0.25;;;7.30;99.90;;;;;;5054855;28;20469;-74
2020/12/04 09:34:50;;;;;;;0.30;0.00;;;7.30;99.90;;;;;;5054569;28;20024;-73
2020/12/04 09:37:20;;;;;;;0.68;0.00;;;7.20;99.90;;;;;;5049086;28;20029;-73
2020/12/04 09:39:49;;;;;;;1.15;0.00;;;7.20;99.90;;;;;;5052720;28;20033;-73
2020/12/04 09:42:15;;;;;;;;;;;7.20;99.90;;;;;;5053416;28;20028;-73
2020/12/04 09:44:43;;;;;;;0.00;0.00;;;7.20;99.90;;;;;;5052255;28;19921;-73
2020/12/04 09:47:09;;;;;;;0.63;0.00;;;7.20;99.90;;;;;;5053601;28;20057;-73
2020/12/04 09:49:35;;;;;;;2.65;0.15;;;7.30;99.90;;;;;;5054948;28;20025;-73
2020/12/04 09:52:01;;;;;;;0.10;0.00;;;7.30;99.90;;;;;;5054326;28;20028;-73
2020/12/04 09:54:28;;;;;;;0.20;0.00;;;7.40;99.90;;;;;;5054501;28;20054;-73
2020/12/04 09:56:55;;;;;;;0.10;0.00;;;7.40;99.90;;;;;;5053729;28;20060;-73
2020/12/04 09:59:27;;;;;;;0.95;0.00;;;7.30;99.90;;;;;;5053968;28;20021;-73
2020/12/04 10:01:53;;;;;;;4.50;0.08;;;7.50;99.90;;;;;;5052775;28;20025;-73
2020/12/04 10:04:20;;;;;;;0.00;0.00;;;7.40;99.90;;;;;;5053321;28;20044;-73
2020/12/04 10:06:46;;;;;;;0.10;0.00;;;7.40;99.90;;;;;;5053516;28;20107;-73
2020/12/04 10:09:13;;;;;;;1.67;0.00;;;7.40;99.90;;;;;;5054277;28;20165;-73
2020/12/04 10:11:40;;;;;;;1.85;0.00;;;7.40;99.90;;;;;;5054325;28;20485;-73
2020/12/04 10:14:05;;;;;;;0.40;0.00;;;7.40;99.90;;;;;;5053064;28;20025;-73
2020/12/04 10:16:31;;;;;;;0.10;0.00;;;7.40;99.90;;;;;;5053806;28;20032;-73
2020/12/04 10:18:57;;;;;;;0.00;0.00;;;7.40;99.90;;;;;;5052609;28;20064;-73
2020/12/04 10:21:27;;;;;;;3.15;0.28;;;7.40;99.90;;;;;;5052626;28;20010;-73
2020/12/04 10:23:55;;;;;;;1.55;0.00;;;7.40;99.90;;;;;;5054014;28;20021;-73
2020/12/04 10:26:21;;;;;;;0.00;0.00;;;7.50;99.90;;;;;;5054015;28;20488;-73
2020/12/04 10:28:47;;;;;;;0.20;0.00;;;7.50;99.90;;;;;;5053640;28;20088;-73
2020/12/04 10:31:13;;;;;;;0.50;0.00;;;7.60;99.90;;;;;;5052342;28;20066;-73
2020/12/04 10:33:38;;;;;;;2.92;0.00;;;7.50;99.90;;;;;;5053387;28;20072;-73
2020/12/04 10:36:04;;;;;;;0.45;0.00;;;7.60;99.90;;;;;;5052888;28;20017;-73
2020/12/04 10:38:29;;;;;;;0.10;0.00;;;7.60;99.90;;;;;;5051885;28;20019;-73
2020/12/04 10:40:56;;;;;;;0.20;0.00;;;7.60;99.90;;;;;;5053078;28;20078;-73
2020/12/04 10:43:21;;;;;;;0.17;0.00;;;7.60;99.90;;;;;;5053249;28;20490;-73
2020/12/04 10:45:47;;;;;;;0.00;0.00;;;7.70;99.90;;;;;;5052885;28;20056;-73
2020/12/04 10:48:13;;;;;;;0.52;0.10;;;7.70;99.90;;;;;;5053102;28;20022;-73
2020/12/04 10:50:39;;;;;;;0.00;0.00;;;7.60;99.90;;;;;;5052272;28;20029;-73
2020/12/04 10:53:04;;;;;;;0.45;0.10;;;7.60;99.90;;;;;;5053131;28;20056;-73
2020/12/04 10:55:30;;;;;;;0.00;0.00;;;7.60;99.90;;;;;;5052044;28;20086;-73
2020/12/04 10:57:55;;;;;;;0.00;0.00;;;7.60;99.90;;;;;;5052548;28;20370;-73
2020/12/04 11:00:21;;;;;;;0.00;0.00;;;7.70;99.90;;;;;;5052824;28;20029;-73
2020/12/04 11:02:46;;;;;;;1.13;0.15;;;7.80;99.90;;;;;;5053172;28;20139;-73
2020/12/04 11:07:56;;;;;;;0.55;0.00;;;7.90;99.90;;;;;;5053129;28;20179;-73
2020/12/04 11:10:21;;;;;;;1.30;0.00;;;8.00;99.90;;;;;;5052696;28;20487;-73
2020/12/04 11:12:48;;;;;;;0.00;0.00;;;8.10;99.90;;;;;;5053176;28;20033;-74
2020/12/04 11:15:13;;;;;;;0.00;0.00;;;8.20;99.90;;;;;;5053413;28;20068;-74
2020/12/04 11:17:39;;;;;;;0.00;0.00;;;8.20;99.90;;;;;;5052736;28;20021;-74
2020/12/04 11:20:05;;;;;;;0.08;0.00;;;8.30;99.50;;;;;;5052995;28;20091;-74
2020/12/04 11:22:35;;;;;;;0.20;0.00;;;8.20;99.30;;;;;;5052154;28;20035;-74
2020/12/04 11:25:01;;;;;;;0.20;0.00;;;8.20;99.60;;;;;;5051478;28;20025;-74
2020/12/04 11:27:27;;;;;;;0.00;0.00;;;8.10;99.20;;;;;;5056374;28;20033;-74
2020/12/04 11:29:53;;;;;;;0.40;0.00;;;8.00;99.80;;;;;;5056537;28;20028;-74
2020/12/04 11:32:18;;;;;;;0.22;0.00;;;7.90;99.90;;;;;;5056394;28;20021;-74
2020/12/04 11:34:43;;;;;;;1.20;0.00;;;7.80;99.90;;;;;;5055178;28;20036;-74
2020/12/04 11:37:10;;;;;;;0.00;0.00;;;7.80;99.90;;;;;;5056644;28;20029;-74
2020/12/04 11:39:39;;;;;;;0.00;0.00;;;7.80;99.90;;;;;;5056386;28;20082;-74
2020/12/04 11:42:14;;;;;;;0.32;0.00;;;7.70;99.90;;;;;;5054949;28;20036;-74
2020/12/04 11:44:40;;;;;;;0.00;0.00;;;7.80;99.90;;;;;;5056893;28;20025;-74
2020/12/04 11:47:05;;;;;;;0.00;0.00;;;7.90;99.80;;;;;;5056335;28;20040;-74
2020/12/04 11:49:31;;;;;;;0.05;0.00;;;7.90;98.40;;;;;;5055778;28;20025;-74
2020/12/04 11:51:56;;;;;;;0.90;0.00;;;7.90;98.50;;;;;;5055892;28;20032;-74
2020/12/04 11:54:22;;;;;;;0.43;0.00;;;7.90;98.70;;;;;;5055752;28;20025;-74
2020/12/04 11:56:50;;;;;;;2.60;0.00;;;7.90;98.20;;;;;;5056403;28;20033;-74
2020/12/04 11:59:18;;;;;;;0.00;0.00;;;7.90;98.30;;;;;;5054396;28;20047;-74
2020/12/04 12:01:45;;;;;;;0.25;0.00;;;8.00;96.40;;;;;;5055630;28;20021;-74
2020/12/04 12:04:15;;;;;;;0.00;0.00;;;8.20;95.60;;;;;;5056004;28;20025;-74
2020/12/04 12:06:41;;;;;;;0.00;0.00;;;8.30;94.20;;;;;;5055285;28;20055;-73
2020/12/04 12:09:07;;;;;;;0.57;0.00;;;8.20;93.00;;;;;;5055407;28;20529;-73
2020/12/04 12:11:33;;;;;;;0.00;0.00;;;8.10;93.60;;;;;;5055836;28;20025;-74
2020/12/04 12:13:59;;;;;;;0.00;0.00;;;8.10;94.00;;;;;;5055778;28;20096;-74
2020/12/04 12:16:25;;;;;;;0.25;0.00;;;8.00;94.00;;;;;;5054817;28;20025;-74
2020/12/04 12:18:50;;;;;;;0.00;0.00;;;8.00;93.70;;;;;;5054222;28;20027;-74
2020/12/04 12:21:17;;;;;;;0.00;0.00;;;7.90;94.70;;;;;;5055310;28;20064;-74
2020/12/04 12:23:42;;;;;;;0.00;0.00;;;7.90;94.60;;;;;;5056328;28;20017;-74
2020/12/04 12:26:08;;;;;;;0.65;0.00;;;7.80;95.20;;;;;;5055742;28;20505;-74
2020/12/04 12:28:33;;;;;;;0.10;0.00;;;7.80;96.50;;;;;;5056230;28;20024;-74
2020/12/04 12:31:00;;;;;;;0.00;0.00;;;7.70;96.10;;;;;;5055550;28;20122;-74
2020/12/04 12:33:26;;;;;;;0.00;0.00;;;7.70;97.00;;;;;;5055473;28;20025;-74
2020/12/04 12:35:52;;;;;;;0.00;0.00;;;7.70;97.10;;;;;;5055837;28;20143;-74
2020/12/04 12:38:17;;;;;;;0.00;0.00;;;7.60;97.50;;;;;;5054713;28;20485;-74
2020/12/04 12:40:43;;;;;;;0.00;0.00;;;7.60;97.40;;;;;;5055895;28;20039;-74
2020/12/04 12:43:08;;;;;;;0.00;0.00;;;7.60;98.10;;;;;;5054184;28;20100;-74
2020/12/04 12:45:34;;;;;;;0.00;0.00;;;7.60;98.50;;;;;;5053780;28;20389;-74
2020/12/04 12:47:59;;;;;;;0.00;0.00;;;7.50;97.90;;;;;;5055008;28;20025;-74
2020/12/04 12:50:26;;;;;;;0.05;0.00;;;7.50;98.80;;;;;;5055377;28;20021;-74
2020/12/04 12:52:52;;;;;;;0.10;0.00;;;7.50;99.60;;;;;;5055478;28;20025;-74
2020/12/04 12:55:18;;;;;;;0.00;0.00;;;7.60;99.90;;;;;;5055722;28;20056;-74
2020/12/04 12:57:43;;;;;;;0.20;0.00;;;7.60;99.40;;;;;;5055243;28;20418;-74
2020/12/04 13:00:09;;;;;;;0.08;0.00;;;7.50;99.60;;;;;;5055217;28;20108;-74
2020/12/04 13:02:34;;;;;;;0.52;0.00;;;7.60;99.60;;;;;;5054787;28;20021;-74